KHAI/HAI METAR and TAF weather

Enter ICAO airport designator
Station Type Date Time Source
KHAI METAR 2021/07/28 20:35 UTC NOAA

KHAI 282035Z AUTO 00000KT 10SM SCT032 SCT043 SCT055 30/22 A3001 RMK AO2 T03030219


Station Type Date Time Source
KHAI Decoded METAR 2021/07/28 20:35 UTC NOAA

Station name not available
Jul 28, 2021 - 04:35 PM EDT / 2021.07.28 2035 UTC
Wind: Calm:0
Visibility: 10 mile(s):0
Sky conditions: partly cloudy
Temperature: 86.5 F (30.3 C)
Heat index: 92.1 F (33.4 C):1
Dew Point: 71.4 F (21.9 C)
Relative Humidity: 60%
Pressure (altimeter): 30.01 in. Hg (1016 hPa)
ob: KHAI 282035Z AUTO 00000KT 10SM SCT032 SCT043 SCT055 30/22 A3001 RMK AO2 T03030219
cycle: 20

Station Type Date Time Source
KHAI TAF UTC NOAA

Error!

Example: see airport list